Time;durP1;ratioP1;P1;durP2;ratioP2;P2;SDS_P1;SDS_P2;PMS_P1;PMS_P2;Temp;Humidity;BMP_temperature;BMP_pressure;BME280_temperature;BME280_humidity;BME280_pressure;Samples;Min_cycle;Max_cycle;Signal;HPM_P1;HPM_P2
2021/11/18 00:00:43;;;;;;;13.10;5.88;;;;;;;14.50;50.38;102504.34;4994668;28;20018;-61
2021/11/18 00:03:10;;;;;;;24.10;6.72;;;;;;;14.47;51.04;102501.88;5009266;28;20029;-61
2021/11/18 00:05:36;;;;;;;17.27;6.13;;;;;;;14.50;50.96;102491.75;4994160;28;20420;-61
2021/11/18 00:08:03;;;;;;;15.40;5.57;;;;;;;14.43;50.79;102484.22;4991321;28;20014;-61
2021/11/18 00:11:06;;;;;;;15.05;6.40;;;;;;;14.44;51.43;102486.78;4993825;28;20526;-61
2021/11/18 00:13:34;;;;;;;17.17;6.05;;;;;;;14.44;51.18;102477.84;4992019;28;20038;-61
2021/11/18 00:16:00;;;;;;;19.65;5.45;;;;;;;14.47;50.25;102494.66;4993783;28;20094;-61
2021/11/18 00:18:27;;;;;;;19.55;5.57;;;;;;;14.47;51.19;102497.34;4992428;28;20073;-61
2021/11/18 00:21:05;;;;;;;14.35;6.55;;;;;;;14.47;50.90;102496.50;5009064;28;20399;-61
2021/11/18 00:23:34;;;;;;;15.48;7.15;;;;;;;14.43;51.13;102484.22;4992234;28;20029;-61
2021/11/18 00:26:00;;;;;;;18.20;7.03;;;;;;;14.45;51.19;102493.06;4992235;28;20539;-61
2021/11/18 00:28:25;;;;;;;19.80;5.65;;;;;;;14.46;51.26;102501.00;4976305;28;20105;-61
2021/11/18 00:30:51;;;;;;;21.00;5.88;;;;;;;14.47;50.39;102491.97;4993955;28;20371;-62
2021/11/18 00:33:17;;;;;;;14.52;6.75;;;;;;;14.44;51.65;102494.88;4994066;28;20050;-61
2021/11/18 00:35:43;;;;;;;16.13;6.15;;;;;;;14.39;50.67;102488.97;4993456;28;20037;-61
2021/11/18 00:38:09;;;;;;;12.60;5.03;;;;;;;14.42;51.00;102502.22;4993946;28;20033;-61
2021/11/18 00:40:38;;;;;;;9.00;5.18;;;;;;;14.39;51.00;102499.75;4994673;28;20105;-61
2021/11/18 00:43:06;;;;;;;14.50;6.00;;;;;;;14.38;50.14;102514.19;4994787;28;20026;-61
2021/11/18 00:45:32;;;;;;;17.20;5.57;;;;;;;14.37;50.83;102509.81;5009770;28;20049;-61
2021/11/18 00:47:57;;;;;;;16.98;6.32;;;;;;;14.34;50.02;102512.72;4994550;28;20026;-61
2021/11/18 00:50:27;;;;;;;14.10;5.50;;;;;;;14.33;51.76;102505.59;4994647;28;20050;-61
2021/11/18 00:52:53;;;;;;;15.32;5.47;;;;;;;14.32;50.27;102506.56;5009632;28;20026;-62
2021/11/18 00:55:18;;;;;;;19.60;5.32;;;;;;;14.29;50.31;102501.34;4994760;28;20037;-61
2021/11/18 00:57:44;;;;;;;16.98;5.75;;;;;;;14.32;50.02;102513.81;4994322;28;20027;-61
2021/11/18 01:00:13;;;;;;;19.52;5.70;;;;;;;14.28;50.65;102512.25;4993059;28;20446;-61
2021/11/18 01:02:39;;;;;;;10.00;4.35;;;;;;;14.25;51.65;102518.75;4994273;28;20434;-61
2021/11/18 01:05:05;;;;;;;10.27;4.30;;;;;;;14.25;51.15;102518.75;4993256;28;20026;-61
2021/11/18 01:07:31;;;;;;;17.92;4.95;;;;;;;14.23;51.01;102519.84;4994601;28;20026;-61
2021/11/18 01:09:58;;;;;;;15.02;5.22;;;;;;;14.28;51.43;102529.31;4994637;28;20022;-61
2021/11/18 01:12:23;;;;;;;16.85;4.68;;;;;;;14.27;50.77;102537.47;4994474;28;20447;-62
2021/11/18 01:14:48;;;;;;;15.02;5.85;;;;;;;14.26;51.12;102535.78;4994093;28;20035;-61
2021/11/18 01:17:14;;;;;;;20.08;5.80;;;;;;;14.22;51.29;102531.56;4992731;28;20062;-61
2021/11/18 01:19:40;;;;;;;14.80;4.97;;;;;;;14.25;51.35;102544.84;4994436;28;20474;-61
2021/11/18 01:22:07;;;;;;;14.55;4.38;;;;;;;14.26;51.30;102547.44;4994134;28;20068;-61
2021/11/18 01:24:34;;;;;;;14.27;4.68;;;;;;;14.26;50.82;102549.25;5009332;28;20394;-62
2021/11/18 01:26:59;;;;;;;17.63;5.13;;;;;;;14.24;50.26;102543.97;4997789;28;20058;-61
2021/11/18 01:29:25;;;;;;;11.68;4.65;;;;;;;14.25;50.72;102542.13;4998188;28;20109;-61
2021/11/18 01:31:51;;;;;;;22.00;4.90;;;;;;;14.23;50.59;102531.47;4997973;28;20030;-61
2021/11/18 01:34:17;;;;;;;10.77;4.38;;;;;;;14.24;50.86;102538.56;4998083;28;20033;-61
2021/11/18 01:36:42;;;;;;;20.85;6.22;;;;;;;14.21;50.83;102548.75;4998107;28;20062;-61
2021/11/18 01:39:07;;;;;;;12.60;3.92;;;;;;;14.24;50.80;102554.75;4996592;28;20026;-61
2021/11/18 01:41:34;;;;;;;13.50;4.97;;;;;;;14.24;50.38;102548.50;4997006;28;20426;-61
2021/11/18 01:44:03;;;;;;;17.88;5.85;;;;;;;14.23;50.64;102552.19;5012894;28;20030;-61
2021/11/18 01:46:34;;;;;;;16.38;4.95;;;;;;;14.23;51.48;102547.66;4996588;28;20467;-61
2021/11/18 01:49:00;;;;;;;11.18;4.43;;;;;;;14.24;50.62;102551.19;5013190;28;20030;-61
2021/11/18 01:51:31;;;;;;;16.42;5.32;;;;;;;14.23;51.06;102544.97;4997753;28;20105;-61
2021/11/18 01:53:57;;;;;;;17.30;5.97;;;;;;;14.21;51.33;102548.75;4996742;28;20034;-61
2021/11/18 01:56:26;;;;;;;12.25;4.13;;;;;;;14.21;51.04;102541.47;4997701;28;20084;-61
2021/11/18 01:58:57;;;;;;;14.82;5.30;;;;;;;14.15;50.89;102539.25;4997554;28;20394;-61
2021/11/18 02:01:23;;;;;;;15.40;5.32;;;;;;;14.17;51.69;102542.69;4997688;28;20038;-61
2021/11/18 02:03:48;;;;;;;17.23;5.70;;;;;;;14.18;51.73;102530.91;4997625;28;20032;-61
2021/11/18 02:06:27;;;;;;;13.23;4.63;;;;;;;14.18;50.56;102540.88;4997551;28;20034;-61
2021/11/18 02:08:52;;;;;;;17.75;6.15;;;;;;;14.20;51.16;102536.22;4996052;28;20085;-61
2021/11/18 02:11:38;;;;;;;15.88;5.80;;;;;;;14.19;50.55;102545.25;4997525;28;20030;-61
2021/11/18 02:14:05;;;;;;;10.70;5.13;;;;;;;14.16;51.33;102545.47;4995819;28;20037;-62
2021/11/18 02:16:30;;;;;;;11.63;5.20;;;;;;;14.17;50.59;102547.22;4995902;28;20451;-61
2021/11/18 02:18:56;;;;;;;16.70;5.45;;;;;;;14.18;50.17;102565.97;4995924;28;20035;-61
2021/11/18 02:21:21;;;;;;;12.35;5.95;;;;;;;14.19;51.45;102561.44;4996018;28;20038;-61
2021/11/18 02:23:50;;;;;;;13.38;5.30;;;;;;;14.19;50.29;102567.69;4996437;28;20117;-61
2021/11/18 02:26:17;;;;;;;15.45;6.38;;;;;;;14.17;50.38;102572.34;4997292;28;20062;-61
2021/11/18 02:28:45;;;;;;;13.68;5.63;;;;;;;14.17;50.34;102575.03;4997587;28;20054;-61
2021/11/18 02:31:25;;;;;;;21.13;6.82;;;;;;;14.21;51.32;102576.53;4996945;28;20053;-61
2021/11/18 02:33:52;;;;;;;20.45;6.38;;;;;;;14.20;51.53;102573.94;4995779;28;20034;-61
2021/11/18 02:36:17;;;;;;;20.50;8.18;;;;;;;14.21;51.50;102568.44;5012254;28;20084;-61
2021/11/18 02:38:43;;;;;;;12.32;6.68;;;;;;;14.16;51.11;102565.22;4996153;28;20400;-61
2021/11/18 02:41:10;;;;;;;18.33;6.68;;;;;;;14.21;49.91;102579.22;4996911;28;20033;-61
2021/11/18 02:43:36;;;;;;;16.35;7.10;;;;;;;14.23;49.96;102580.00;4997145;28;20494;-61
2021/11/18 02:46:02;;;;;;;19.02;6.88;;;;;;;14.22;50.84;102588.16;4996802;28;20030;-61
2021/11/18 02:48:28;;;;;;;23.20;8.23;;;;;;;14.17;51.27;102585.81;4996862;28;20026;-61
2021/11/18 02:51:00;;;;;;;18.75;7.82;;;;;;;14.19;50.79;102588.38;4995446;28;20121;-61
2021/11/18 02:53:26;;;;;;;25.25;7.50;;;;;;;14.18;50.65;102582.13;4996876;28;20038;-61
2021/11/18 02:55:53;;;;;;;23.20;8.15;;;;;;;14.18;50.15;102581.28;4996592;28;20113;-61
2021/11/18 02:58:20;;;;;;;24.52;8.38;;;;;;;14.16;50.26;102578.69;4996442;28;20029;-61
2021/11/18 03:00:52;;;;;;;19.42;7.13;;;;;;;14.13;50.51;102576.22;4996677;28;20023;-61
2021/11/18 03:03:18;;;;;;;19.70;6.70;;;;;;;14.09;51.74;102566.63;4996544;28;20026;-61
2021/11/18 03:05:45;;;;;;;14.43;7.15;;;;;;;14.13;49.99;102564.56;4996298;28;20105;-61
2021/11/18 03:08:11;;;;;;;20.30;7.40;;;;;;;14.08;50.68;102559.53;4996383;28;20475;-61
2021/11/18 03:10:37;;;;;;;18.15;6.65;;;;;;;14.08;51.68;102558.66;4996402;28;20061;-62
2021/11/18 03:13:02;;;;;;;15.65;7.15;;;;;;;14.03;51.60;102567.06;4996352;28;20558;-61
2021/11/18 03:15:28;;;;;;;26.15;7.57;;;;;;;14.05;51.49;102559.72;4996632;28;20044;-61
2021/11/18 03:17:54;;;;;;;13.95;6.63;;;;;;;14.02;51.48;102560.81;4995032;28;20411;-61
2021/11/18 03:20:21;;;;;;;15.52;7.63;;;;;;;14.01;51.28;102574.41;4996210;28;20030;-61
2021/11/18 03:22:47;;;;;;;24.17;7.93;;;;;;;13.86;50.39;102545.84;4995999;28;20030;-61
2021/11/18 03:25:15;;;;;;;17.80;7.25;;;;;;;13.94;50.38;102556.94;4996166;28;20026;-61
2021/11/18 03:27:40;;;;;;;24.73;7.57;;;;;;;13.95;50.98;102569.44;4994940;28;20029;-61
2021/11/18 03:30:08;;;;;;;12.40;6.60;;;;;;;13.91;51.52;102565.22;4996057;28;20483;-61
2021/11/18 03:32:34;;;;;;;16.75;7.57;;;;;;;13.92;50.47;102580.44;5011843;28;20375;-61
2021/11/18 03:35:00;;;;;;;16.00;8.07;;;;;;;13.89;51.02;102583.34;4996169;28;20498;-61
2021/11/18 03:37:25;;;;;;;16.13;6.95;;;;;;;13.94;50.37;102589.28;4995722;28;20033;-62
2021/11/18 03:39:51;;;;;;;20.65;7.53;;;;;;;13.94;50.51;102584.75;4994595;28;20116;-61
2021/11/18 03:42:16;;;;;;;23.10;7.32;;;;;;;13.93;51.09;102577.63;4994793;28;20073;-61
2021/11/18 03:44:42;;;;;;;21.63;6.85;;;;;;;13.90;50.15;102571.63;4995676;28;20023;-61
2021/11/18 03:47:14;;;;;;;17.33;6.45;;;;;;;13.84;50.32;102556.75;4995921;28;20105;-61
2021/11/18 03:49:40;;;;;;;26.45;8.02;;;;;;;13.92;51.35;102566.97;5010455;28;20109;-62
2021/11/18 03:52:08;;;;;;;22.88;7.50;;;;;;;13.90;51.37;102574.31;4996003;28;20030;-61
2021/11/18 03:54:35;;;;;;;21.08;8.10;;;;;;;13.88;50.57;102578.91;4978289;28;20026;-61
2021/11/18 03:57:01;;;;;;;19.85;8.07;;;;;;;13.86;50.08;102570.97;4995587;28;20088;-60
2021/11/18 03:59:29;;;;;;;15.73;6.65;;;;;;;13.82;50.46;102572.13;5010562;28;20038;-61
2021/11/18 04:01:56;;;;;;;19.10;8.00;;;;;;;13.83;50.53;102579.25;4995709;28;20162;-61
2021/11/18 04:04:25;;;;;;;28.75;8.43;;;;;;;13.83;51.40;102578.38;4995781;28;20018;-61
2021/11/18 04:06:51;;;;;;;17.13;7.63;;;;;;;13.82;50.62;102579.34;4995420;28;20026;-60
2021/11/18 04:09:16;;;;;;;18.77;7.70;;;;;;;13.79;51.04;102574.19;4994399;28;20031;-60
2021/11/18 04:11:44;;;;;;;20.08;6.95;;;;;;;13.78;50.07;102577.84;4995443;28;20497;-60
2021/11/18 04:14:11;;;;;;;18.10;6.68;;;;;;;13.75;50.17;102583.44;4995149;28;20030;-61
2021/11/18 04:16:37;;;;;;;17.75;6.78;;;;;;;13.70;51.63;102580.22;4993860;28;20547;-61
2021/11/18 04:19:03;;;;;;;21.00;7.55;;;;;;;13.70;50.76;102585.59;4995576;28;20058;-60
2021/11/18 04:21:31;;;;;;;18.38;6.63;;;;;;;13.70;50.14;102582.91;4977964;28;20032;-60
2021/11/18 04:23:58;;;;;;;17.42;7.45;;;;;;;13.69;51.27;102595.50;4994493;28;20053;-60
2021/11/18 04:26:23;;;;;;;16.85;7.82;;;;;;;13.66;50.98;102584.06;4995492;28;20034;-61
2021/11/18 04:28:49;;;;;;;19.52;7.28;;;;;;;13.67;51.59;102596.59;4995218;28;20364;-60
2021/11/18 04:31:17;;;;;;;22.42;7.88;;;;;;;13.66;50.27;102600.22;4994885;28;20037;-60
2021/11/18 04:33:42;;;;;;;19.55;7.47;;;;;;;13.64;51.59;102603.03;5010248;28;20030;-61
2021/11/18 04:36:10;;;;;;;18.75;6.40;;;;;;;13.64;51.71;102607.56;4995059;28;20026;-60
2021/11/18 04:38:35;;;;;;;21.13;7.25;;;;;;;13.56;50.41;102597.31;4994902;28;20030;-60
2021/11/18 04:41:01;;;;;;;17.77;7.68;;;;;;;13.60;50.54;102603.34;4993655;28;20030;-60
2021/11/18 04:43:28;;;;;;;16.58;7.05;;;;;;;13.63;50.72;102611.22;4988592;28;20483;-61
2021/11/18 04:45:53;;;;;;;18.85;6.53;;;;;;;13.63;50.59;102608.53;4974233;28;20022;-61
2021/11/18 04:48:19;;;;;;;23.73;7.45;;;;;;;13.55;50.32;102589.34;4987974;28;20032;-60
2021/11/18 04:50:44;;;;;;;15.25;7.78;;;;;;;13.60;51.57;102608.72;4993383;28;20030;-60
2021/11/18 04:53:10;;;;;;;21.45;6.68;;;;;;;13.57;51.00;102607.09;4993636;28;20467;-60
2021/11/18 04:55:37;;;;;;;19.80;7.60;;;;;;;13.54;51.52;102598.41;4978223;28;20033;-60
2021/11/18 04:58:03;;;;;;;25.02;8.32;;;;;;;13.50;50.37;102605.81;4973813;28;20527;-61
2021/11/18 05:00:34;;;;;;;21.80;7.43;;;;;;;13.49;51.88;102600.53;4974331;28;20030;-61
2021/11/18 05:02:59;;;;;;;21.45;7.50;;;;;;;13.50;50.93;102600.44;4957560;28;20117;-60
2021/11/18 05:05:26;;;;;;;22.98;6.85;;;;;;;13.50;50.68;102610.34;4975197;28;20162;-60
2021/11/18 05:07:51;;;;;;;18.85;7.03;;;;;;;13.50;50.26;102607.63;5007494;28;20014;-61
2021/11/18 05:10:18;;;;;;;21.35;6.88;;;;;;;13.52;50.27;102603.88;4994671;28;20094;-60
2021/11/18 05:12:44;;;;;;;16.35;7.00;;;;;;;13.52;51.48;102594.94;4994527;28;20467;-60
2021/11/18 05:15:14;;;;;;;23.63;8.30;;;;;;;13.55;50.41;102605.50;4994590;28;20029;-61
2021/11/18 05:17:40;;;;;;;25.73;7.35;;;;;;;13.58;50.39;102599.91;4994282;28;20096;-60
2021/11/18 05:20:06;;;;;;;16.20;7.35;;;;;;;13.59;51.34;102601.63;4994160;28;20026;-60
2021/11/18 05:22:32;;;;;;;17.50;6.90;;;;;;;13.60;50.61;102606.91;4994346;28;20038;-61
2021/11/18 05:24:57;;;;;;;19.92;6.43;;;;;;;13.61;51.36;102594.31;4994294;28;20030;-60
2021/11/18 05:27:24;;;;;;;24.42;7.70;;;;;;;13.63;51.07;102600.44;4994294;28;20069;-60
2021/11/18 05:29:50;;;;;;;25.20;7.15;;;;;;;13.64;50.98;102605.75;4994354;28;20022;-60
2021/11/18 05:32:16;;;;;;;14.10;6.93;;;;;;;13.64;50.65;102607.56;4994074;28;20141;-60
2021/11/18 05:34:41;;;;;;;27.58;8.02;;;;;;;13.65;50.45;102591.28;4994302;28;20030;-61
2021/11/18 05:37:06;;;;;;;17.83;7.30;;;;;;;13.66;51.48;102600.22;4994270;28;20022;-60
2021/11/18 05:39:33;;;;;;;16.83;7.65;;;;;;;13.62;50.49;102587.97;4992905;28;20034;-61
2021/11/18 05:41:58;;;;;;;19.65;8.20;;;;;;;13.64;50.93;102599.47;4994147;28;20026;-60
2021/11/18 05:44:24;;;;;;;22.58;6.45;;;;;;;13.66;51.58;102595.72;4994017;28;20088;-61
2021/11/18 05:46:49;;;;;;;13.82;6.30;;;;;;;13.72;51.61;102615.97;4993991;28;20053;-60
2021/11/18 05:49:14;;;;;;;21.20;6.13;;;;;;;13.70;51.56;102591.00;4994222;28;20054;-61
2021/11/18 05:51:40;;;;;;;19.13;7.30;;;;;;;13.72;51.35;102600.69;4994046;28;20476;-60
2021/11/18 05:54:08;;;;;;;18.17;6.65;;;;;;;13.76;51.53;102609.41;4994199;28;20033;-60
2021/11/18 05:56:34;;;;;;;31.60;8.20;;;;;;;13.74;51.00;102608.63;4994165;28;20027;-61
2021/11/18 05:58:59;;;;;;;20.90;6.65;;;;;;;13.75;51.80;102605.84;4994254;28;20025;-60
2021/11/18 06:01:29;;;;;;;19.98;7.38;;;;;;;13.78;51.01;102610.16;4992524;28;20026;-60
2021/11/18 06:03:54;;;;;;;26.55;8.02;;;;;;;13.79;50.39;102622.69;4993157;28;20026;-60
2021/11/18 06:06:20;;;;;;;23.77;7.38;;;;;;;13.71;51.36;102606.16;4993898;28;20403;-61
2021/11/18 06:08:45;;;;;;;26.20;7.70;;;;;;;13.83;50.80;102611.56;4993873;28;20018;-61
2021/11/18 06:11:11;;;;;;;19.30;7.07;;;;;;;13.85;50.41;102619.53;4994479;28;20081;-61
2021/11/18 06:13:39;;;;;;;25.17;6.70;;;;;;;13.84;51.72;102623.22;4997489;28;20022;-60
2021/11/18 06:16:04;;;;;;;14.43;6.32;;;;;;;13.79;50.29;102617.28;4997916;28;20030;-60
2021/11/18 06:18:30;;;;;;;18.80;7.18;;;;;;;13.79;51.81;102609.22;4996091;28;20050;-60
2021/11/18 06:20:55;;;;;;;16.00;6.85;;;;;;;13.80;51.04;102605.53;4997469;28;20110;-61
2021/11/18 06:23:21;;;;;;;17.33;7.15;;;;;;;13.79;50.87;102607.34;4996024;28;20026;-61
2021/11/18 06:25:46;;;;;;;20.30;7.45;;;;;;;13.79;51.42;102596.56;4997332;28;20041;-61
2021/11/18 06:28:15;;;;;;;19.10;7.00;;;;;;;13.76;51.62;102601.34;4997159;28;20030;-60
2021/11/18 06:30:42;;;;;;;16.15;6.57;;;;;;;13.76;51.26;102604.03;5002118;28;20092;-61
2021/11/18 06:33:08;;;;;;;19.17;6.93;;;;;;;13.67;50.60;102586.69;5012425;28;20026;-61
2021/11/18 06:35:34;;;;;;;21.23;6.93;;;;;;;13.73;50.63;102597.03;4997131;28;20022;-61
2021/11/18 06:37:59;;;;;;;25.50;8.07;;;;;;;13.71;51.44;102606.16;4996554;28;20022;-61
2021/11/18 06:40:25;;;;;;;19.33;6.88;;;;;;;13.75;50.85;102610.38;4996887;28;20034;-61
2021/11/18 06:42:51;;;;;;;23.67;7.25;;;;;;;13.75;51.20;102607.69;4996772;28;20030;-61
2021/11/18 06:45:31;;;;;;;16.60;5.85;;;;;;;13.77;50.90;102619.22;4996725;28;20030;-61
2021/11/18 06:47:57;;;;;;;20.50;5.63;;;;;;;13.79;50.83;102617.28;4996683;28;20026;-61
2021/11/18 06:50:22;;;;;;;18.27;7.38;;;;;;;13.81;50.54;102615.34;5011952;28;20386;-62
2021/11/18 06:52:48;;;;;;;22.50;6.60;;;;;;;13.81;50.70;102615.34;4995743;28;20523;-62
2021/11/18 06:55:14;;;;;;;16.92;6.10;;;;;;;13.86;50.56;102619.44;4996511;28;20033;-62
2021/11/18 06:57:40;;;;;;;18.45;6.40;;;;;;;13.87;51.08;102626.53;4996521;28;20022;-61
2021/11/18 07:00:08;;;;;;;18.42;6.53;;;;;;;13.90;50.86;102638.97;4995157;28;20387;-62
2021/11/18 07:02:36;;;;;;;16.75;6.97;;;;;;;13.92;50.79;102628.94;4995324;28;20120;-62
2021/11/18 07:05:02;;;;;;;15.73;6.05;;;;;;;13.92;51.22;102628.94;4996508;28;20030;-62
2021/11/18 07:07:27;;;;;;;22.95;7.40;;;;;;;13.96;50.63;102625.03;4996980;28;20165;-62
2021/11/18 07:09:52;;;;;;;28.25;7.45;;;;;;;13.96;50.36;102620.53;4996267;28;20101;-62
2021/11/18 07:12:19;;;;;;;17.63;6.68;;;;;;;13.95;50.79;102616.13;4996622;28;20037;-62
2021/11/18 07:14:46;;;;;;;17.15;6.43;;;;;;;14.02;51.31;102630.00;4994700;28;20029;-62
2021/11/18 07:17:12;;;;;;;23.63;6.38;;;;;;;14.03;50.76;102634.44;5011167;28;20053;-62
2021/11/18 07:19:37;;;;;;;12.20;5.50;;;;;;;14.06;51.60;102641.44;4994680;28;20023;-61
2021/11/18 07:22:04;;;;;;;18.48;6.60;;;;;;;14.02;51.07;102638.09;5011274;28;20070;-62
2021/11/18 07:24:30;;;;;;;20.30;6.38;;;;;;;14.08;51.70;102636.78;4995366;28;20084;-62
2021/11/18 07:26:55;;;;;;;23.65;6.68;;;;;;;14.08;51.70;102640.34;4995965;28;20073;-62
2021/11/18 07:29:22;;;;;;;16.55;6.60;;;;;;;14.07;50.92;102633.22;4995904;28;20426;-62
2021/11/18 07:31:48;;;;;;;12.40;5.95;;;;;;;14.08;50.12;102640.34;4995085;28;20497;-62
2021/11/18 07:34:13;;;;;;;23.20;6.53;;;;;;;14.09;51.03;102639.41;4995899;28;20031;-61
2021/11/18 07:36:39;;;;;;;20.10;6.18;;;;;;;14.11;51.03;102648.22;4995869;28;20027;-62
2021/11/18 07:39:04;;;;;;;15.73;6.43;;;;;;;14.06;50.80;102642.31;4996191;28;20032;-63
2021/11/18 07:41:30;;;;;;;12.27;5.63;;;;;;;14.14;51.57;102649.84;4996164;28;20022;-61
2021/11/18 07:43:55;;;;;;;21.08;5.53;;;;;;;14.15;51.52;102657.84;4996654;28;20636;-62
2021/11/18 07:46:21;;;;;;;27.73;6.75;;;;;;;14.15;51.63;102663.22;4996130;28;20030;-61
2021/11/18 07:48:48;;;;;;;21.42;6.00;;;;;;;14.23;50.75;102662.69;4995866;28;20050;-62
2021/11/18 07:51:15;;;;;;;18.45;6.03;;;;;;;14.19;51.71;102653.94;4995458;28;20136;-63
2021/11/18 07:53:42;;;;;;;17.95;5.72;;;;;;;14.27;50.59;102666.88;5010544;28;20030;-62
2021/11/18 07:56:07;;;;;;;16.88;6.72;;;;;;;14.29;51.44;102665.78;4995300;28;20494;-62
2021/11/18 07:58:33;;;;;;;26.25;6.90;;;;;;;14.31;51.34;102669.25;4995404;28;20026;-62
2021/11/18 08:00:58;;;;;;;24.50;6.82;;;;;;;14.32;51.04;102676.41;4995527;28;20034;-62
2021/11/18 08:03:25;;;;;;;19.73;5.90;;;;;;;14.36;50.20;102663.56;5011062;28;20079;-63
2021/11/18 08:05:50;;;;;;;18.90;6.93;;;;;;;14.40;51.26;102662.41;4995274;28;20034;-62
2021/11/18 08:08:16;;;;;;;19.48;6.45;;;;;;;14.44;51.00;102656.66;4995407;28;20037;-62
2021/11/18 08:10:41;;;;;;;16.63;5.78;;;;;;;14.44;50.28;102648.56;4995160;28;20026;-62
2021/11/18 08:13:07;;;;;;;19.25;6.63;;;;;;;14.47;51.74;102661.84;4995269;28;20034;-62
2021/11/18 08:15:33;;;;;;;24.52;7.22;;;;;;;14.52;51.14;102675.84;4995302;28;20082;-63
2021/11/18 08:17:59;;;;;;;19.20;6.20;;;;;;;14.49;50.51;102662.59;4994658;28;20104;-61
2021/11/18 08:20:25;;;;;;;16.83;5.85;;;;;;;14.60;51.51;102671.75;4995688;28;20034;-62
2021/11/18 08:22:52;;;;;;;17.75;6.95;;;;;;;14.55;50.66;102655.88;4995323;28;20169;-62
2021/11/18 08:25:20;;;;;;;19.48;6.40;;;;;;;14.63;50.99;102664.28;5010156;28;20069;-62
2021/11/18 08:27:45;;;;;;;21.60;6.90;;;;;;;14.63;50.61;102661.59;4995272;28;20077;-62
2021/11/18 08:30:15;;;;;;;18.48;6.65;;;;;;;14.66;50.71;102664.06;4994936;28;20502;-61
2021/11/18 08:32:42;;;;;;;15.38;5.63;;;;;;;14.68;50.67;102683.72;4995211;28;20420;-61
2021/11/18 08:35:08;;;;;;;19.48;5.82;;;;;;;14.69;50.06;102687.25;4993913;28;20101;-63
2021/11/18 08:37:33;;;;;;;20.60;5.95;;;;;;;14.66;51.51;102684.78;4994922;28;20440;-62
2021/11/18 08:39:59;;;;;;;21.30;7.22;;;;;;;14.72;50.19;102695.13;4994420;28;20483;-62
2021/11/18 08:42:27;;;;;;;19.42;6.25;;;;;;;14.75;50.68;102694.91;4993237;28;20029;-62
2021/11/18 08:44:53;;;;;;;18.92;5.30;;;;;;;14.78;50.36;102695.56;4994657;28;20038;-62
2021/11/18 08:47:19;;;;;;;14.90;5.55;;;;;;;14.86;49.80;102708.50;4994801;28;20535;-62
2021/11/18 08:49:45;;;;;;;15.35;6.47;;;;;;;14.97;50.34;102719.38;4994959;28;20019;-62
2021/11/18 08:52:14;;;;;;;16.00;6.55;;;;;;;15.09;50.06;102723.91;4994611;28;20538;-62
2021/11/18 08:54:45;;;;;;;14.85;5.80;;;;;;;15.23;50.96;102722.88;4994630;28;20026;-63
2021/11/18 08:57:11;;;;;;;17.08;5.72;;;;;;;15.28;49.89;102726.97;4994729;28;20077;-62
2021/11/18 08:59:37;;;;;;;18.80;5.72;;;;;;;15.36;50.63;102723.69;4993286;28;20030;-62
2021/11/18 09:02:09;;;;;;;21.05;6.10;;;;;;;15.40;50.90;102717.97;5009582;28;20030;-62
2021/11/18 09:04:34;;;;;;;15.95;5.28;;;;;;;15.43;49.73;102720.44;4994554;28;20025;-62
2021/11/18 09:06:59;;;;;;;23.40;5.78;;;;;;;15.39;51.17;102712.66;4994279;28;20026;-62
2021/11/18 09:09:27;;;;;;;21.17;6.55;;;;;;;15.36;50.02;102702.94;4994282;28;20049;-62
2021/11/18 09:11:54;;;;;;;12.38;5.40;;;;;;;15.39;49.64;102710.81;4994391;28;20026;-62
2021/11/18 09:14:20;;;;;;;16.77;6.63;;;;;;;15.39;50.96;102689.22;5009780;28;20075;-62
2021/11/18 09:16:46;;;;;;;18.67;5.70;;;;;;;15.44;50.70;102695.13;4994102;28;20065;-62
2021/11/18 09:19:15;;;;;;;16.40;5.72;;;;;;;15.44;49.58;102700.53;4992923;28;20042;-62
2021/11/18 09:21:41;;;;;;;13.18;4.93;;;;;;;15.48;50.53;102701.22;4994223;28;20034;-62
2021/11/18 09:24:22;;;;;;;14.00;5.85;;;;;;;15.53;50.44;102702.59;4993997;28;20506;-62
2021/11/18 09:26:51;;;;;;;21.00;5.18;;;;;;;15.54;51.11;102690.81;4994075;28;20022;-62
2021/11/18 09:29:17;;;;;;;17.65;5.22;;;;;;;15.56;50.70;102690.69;4994342;28;20033;-62
2021/11/18 09:31:43;;;;;;;22.58;6.68;;;;;;;15.59;50.67;102690.47;4994069;28;20077;-62
2021/11/18 09:34:09;;;;;;;23.75;5.32;;;;;;;15.63;50.95;102695.50;4994689;28;20034;-62
2021/11/18 09:36:35;;;;;;;15.77;4.20;;;;;;;15.62;49.70;102701.91;4994156;28;20026;-62
2021/11/18 09:39:04;;;;;;;19.23;4.80;;;;;;;15.67;49.88;102712.34;4994189;28;20109;-62
2021/11/18 09:41:52;;;;;;;10.27;4.60;;;;;;;15.70;49.94;102713.00;4993988;28;20029;-62
2021/11/18 09:44:48;;;;;;;11.75;5.03;;;;;;;15.72;51.04;102716.44;4993631;28;20033;-62
2021/11/18 09:47:45;;;;;;;11.80;4.32;;;;;;;15.77;50.07;102715.22;4996341;28;20391;-62
2021/11/18 09:50:34;;;;;;;14.27;5.10;;;;;;;15.85;50.78;102720.91;4997785;28;20109;-62
2021/11/18 09:53:09;;;;;;;17.40;4.53;;;;;;;15.90;50.32;102716.88;4997751;28;20030;-62
2021/11/18 09:55:54;;;;;;;8.98;4.13;;;;;;;15.97;49.32;102714.59;4997504;28;20411;-62
2021/11/18 09:58:24;;;;;;;13.82;4.47;;;;;;;16.01;49.21;102727.72;4997648;28;20079;-61
2021/11/18 10:01:00;;;;;;;12.23;4.15;;;;;;;16.05;49.71;102718.38;4996647;28;20431;-61
2021/11/18 10:03:36;;;;;;;11.85;3.83;;;;;;;16.15;49.39;102726.66;4997772;28;20022;-61
2021/11/18 10:06:23;;;;;;;21.27;4.50;;;;;;;16.30;48.92;102728.19;4996644;28;20543;-62
2021/11/18 10:09:11;;;;;;;8.15;3.38;;;;;;;16.79;48.99;102731.47;4997712;28;20128;-61
2021/11/18 10:11:59;;;;;;;20.00;6.47;;;;;;;17.39;48.53;102720.19;4997782;28;20045;-61
2021/11/18 10:14:24;;;;;;;13.63;4.63;;;;;;;18.02;47.68;102727.50;4968899;28;20038;-61
2021/11/18 10:17:08;;;;;;;21.00;4.90;;;;;;;18.40;47.55;102728.75;4997056;28;20057;-60
2021/11/18 10:19:37;;;;;;;15.02;5.03;;;;;;;18.76;46.73;102741.00;5012480;28;20050;-62
2021/11/18 10:22:03;;;;;;;12.85;4.45;;;;;;;19.23;46.98;102747.63;4996162;28;20026;-61
2021/11/18 10:24:33;;;;;;;11.40;4.22;;;;;;;19.50;46.36;102743.28;4997733;28;20018;-61
2021/11/18 10:27:10;;;;;;;13.55;4.90;;;;;;;19.92;46.05;102746.63;4996159;28;20109;-61
2021/11/18 10:29:54;;;;;;;15.27;4.35;;;;;;;20.35;46.06;102745.34;4996039;28;20026;-62
2021/11/18 10:32:22;;;;;;;20.35;4.38;;;;;;;20.49;45.54;102726.66;4997161;28;20165;-61
2021/11/18 10:34:50;;;;;;;17.65;4.80;;;;;;;20.93;45.00;102716.91;4997469;28;20030;-62
2021/11/18 10:37:25;;;;;;;16.25;4.45;;;;;;;21.30;45.22;102712.28;4997201;28;20383;-62
2021/11/18 10:40:12;;;;;;;10.57;3.75;;;;;;;21.06;45.12;102709.22;4996597;28;20149;-62
2021/11/18 10:42:58;;;;;;;15.77;3.80;;;;;;;21.36;45.02;102711.66;4997186;28;20022;-62
2021/11/18 10:45:27;;;;;;;10.63;3.80;;;;;;;21.70;44.06;102719.16;4996165;28;20022;-62
2021/11/18 10:47:55;;;;;;;18.55;4.22;;;;;;;21.85;44.28;102723.09;4997491;28;20137;-62
2021/11/18 10:50:46;;;;;;;12.90;4.07;;;;;;;22.02;44.36;102719.53;4997101;28;20030;-62
2021/11/18 10:53:25;;;;;;;8.13;3.85;;;;;;;22.14;44.37;102718.22;4996661;28;20103;-62
2021/11/18 10:56:02;;;;;;;14.13;4.00;;;;;;;22.36;44.01;102715.00;4996426;28;20022;-62
2021/11/18 10:58:31;;;;;;;16.10;3.72;;;;;;;22.52;42.62;102690.53;4995387;28;20395;-62
2021/11/18 11:01:13;;;;;;;15.57;3.42;;;;;;;22.59;43.10;102699.78;4996261;28;20026;-62
2021/11/18 11:03:44;;;;;;;11.70;3.65;;;;;;;22.82;43.18;102696.50;4996188;28;20026;-62
2021/11/18 11:06:26;;;;;;;11.68;3.92;;;;;;;22.94;42.14;102685.13;4996086;28;20049;-61
2021/11/18 11:08:52;;;;;;;13.55;3.85;;;;;;;23.12;43.14;102687.75;4996433;28;20479;-61
2021/11/18 11:11:26;;;;;;;8.48;3.35;;;;;;;23.31;42.23;102690.19;4996138;28;20030;-63
2021/11/18 11:14:12;;;;;;;8.38;3.38;;;;;;;23.41;42.49;102668.22;4996126;28;20029;-62
2021/11/18 11:16:56;;;;;;;10.70;4.45;;;;;;;23.49;42.19;102669.09;4995649;28;20565;-62
2021/11/18 11:19:37;;;;;;;10.75;3.75;;;;;;;23.56;41.13;102672.00;4995775;28;20023;-62
2021/11/18 11:22:10;;;;;;;13.13;3.50;;;;;;;23.52;41.21;102668.75;4995827;28;20030;-62